Time;durP1;ratioP1;P1;durP2;ratioP2;P2;SDS_P1;SDS_P2;PMS_P1;PMS_P2;Temp;Humidity;BMP_temperature;BMP_pressure;BME280_temperature;BME280_humidity;BME280_pressure;Samples;Min_cycle;Max_cycle;Signal;HPM_P1;HPM_P2
2021/07/20 00:00:56;;;;;;;13.80;10.13;;;;;;;21.84;69.17;98952.13;5031294;28;20026;-52
2021/07/20 00:03:22;;;;;;;13.93;9.27;;;;;;;21.83;68.77;98953.19;5031402;28;20033;-49
2021/07/20 00:05:47;;;;;;;16.02;9.75;;;;;;;21.78;68.79;98959.28;5031428;28;20033;-53
2021/07/20 00:08:13;;;;;;;14.48;9.77;;;;;;;21.77;68.64;98954.88;5031496;28;20029;-51
2021/07/20 00:10:39;;;;;;;13.32;9.73;;;;;;;21.77;68.63;98971.22;5031415;28;20030;-52
2021/07/20 00:13:06;;;;;;;12.70;9.88;;;;;;;21.74;68.59;98961.59;5031011;28;20380;-47
2021/07/20 00:15:33;;;;;;;14.35;9.18;;;;;;;21.72;67.98;98962.88;5031596;28;20025;-50
2021/07/20 00:18:05;;;;;;;13.77;9.32;;;;;;;21.75;67.88;98965.97;5031500;28;20033;-51
2021/07/20 00:20:31;;;;;;;11.35;9.18;;;;;;;21.69;67.86;98960.56;5031518;28;20029;-52
2021/07/20 00:22:56;;;;;;;13.45;9.27;;;;;;;21.65;67.78;98963.72;5031193;28;20370;-47
2021/07/20 00:25:22;;;;;;;14.88;9.88;;;;;;;21.60;67.46;98951.81;5031162;28;20025;-48
2021/07/20 00:27:48;;;;;;;12.05;9.63;;;;;;;21.63;67.19;98968.53;5029896;28;20026;-47
2021/07/20 00:30:15;;;;;;;14.20;9.60;;;;;;;21.60;67.26;98971.69;5030779;28;20533;-53
2021/07/20 00:32:41;;;;;;;13.73;9.32;;;;;;;21.55;67.37;98963.34;5031083;28;20339;-53
2021/07/20 00:35:09;;;;;;;12.27;9.30;;;;;;;21.56;67.22;98969.59;5031241;28;20033;-49
2021/07/20 00:37:36;;;;;;;12.82;9.52;;;;;;;21.50;67.28;98972.16;5031227;28;20036;-53
2021/07/20 00:40:05;;;;;;;14.77;9.18;;;;;;;21.47;67.39;98967.16;5031055;28;20396;-48
2021/07/20 00:42:30;;;;;;;12.30;9.38;;;;;;;21.40;67.12;98960.91;5030833;28;20069;-51
2021/07/20 00:44:56;;;;;;;11.77;9.05;;;;;;;21.35;67.43;98955.28;5037002;28;20087;-48
2021/07/20 00:47:21;;;;;;;11.35;9.20;;;;;;;21.31;67.11;98959.47;5049148;28;20361;-46
2021/07/20 00:49:47;;;;;;;17.00;9.68;;;;;;;21.32;67.22;98963.84;5049536;28;20086;-49
2021/07/20 00:52:13;;;;;;;14.18;9.73;;;;;;;21.27;67.32;98961.78;5030762;28;20068;-50
2021/07/20 00:54:39;;;;;;;15.95;9.73;;;;;;;21.24;67.37;98964.94;5030887;28;20057;-52
2021/07/20 00:57:05;;;;;;;15.80;9.45;;;;;;;21.22;67.14;98964.34;5030890;28;20500;-49
2021/07/20 00:59:31;;;;;;;13.43;9.43;;;;;;;21.14;67.39;98945.50;5030782;28;20057;-50
2021/07/20 01:01:57;;;;;;;12.75;10.00;;;;;;;21.16;67.46;98954.28;5030638;28;20080;-49
2021/07/20 01:04:22;;;;;;;14.18;10.05;;;;;;;21.11;67.27;98965.84;5030771;28;20568;-49
2021/07/20 01:06:49;;;;;;;16.05;9.52;;;;;;;21.11;67.68;98959.53;5033252;28;20029;-47
2021/07/20 01:09:15;;;;;;;16.05;9.93;;;;;;;21.03;67.71;98950.56;5034643;28;20083;-52
2021/07/20 01:11:41;;;;;;;13.70;8.65;;;;;;;21.03;67.68;98961.47;5034600;28;20108;-49
2021/07/20 01:14:07;;;;;;;13.05;9.18;;;;;;;20.85;67.55;98924.03;5034926;28;20029;-49
2021/07/20 01:16:34;;;;;;;13.00;8.90;;;;;;;21.02;67.70;98958.94;5034641;28;20040;-48
2021/07/20 01:19:05;;;;;;;12.98;9.20;;;;;;;21.04;67.50;98960.41;5034203;28;20366;-48
2021/07/20 01:21:33;;;;;;;15.93;9.00;;;;;;;21.02;67.41;98962.50;5034380;28;20045;-47
2021/07/20 01:23:58;;;;;;;12.25;8.95;;;;;;;20.99;67.79;98952.06;5034381;28;20041;-50
2021/07/20 01:26:24;;;;;;;10.90;9.00;;;;;;;20.96;67.83;98949.72;5034343;28;20361;-46
2021/07/20 01:28:53;;;;;;;13.00;9.13;;;;;;;20.88;67.49;98939.09;5034204;28;20388;-47
2021/07/20 01:31:22;;;;;;;15.85;9.70;;;;;;;21.01;67.40;98957.25;5034170;28;20037;-48
2021/07/20 01:33:52;;;;;;;15.25;9.02;;;;;;;20.97;67.62;98956.84;5034048;28;20053;-49
2021/07/20 01:36:19;;;;;;;11.52;9.13;;;;;;;20.96;68.00;98957.06;5034271;28;20488;-49
2021/07/20 01:38:46;;;;;;;11.75;8.60;;;;;;;20.94;67.72;98957.28;5033867;28;20412;-48
2021/07/20 01:41:14;;;;;;;12.13;9.13;;;;;;;20.83;67.64;98938.91;5033927;28;20064;-49
2021/07/20 01:43:44;;;;;;;11.93;9.60;;;;;;;20.92;67.64;98954.78;5034373;28;20034;-46
2021/07/20 01:46:12;;;;;;;13.60;8.90;;;;;;;20.89;67.68;98965.25;5033718;28;20503;-53
2021/07/20 01:48:41;;;;;;;15.27;9.90;;;;;;;20.77;67.74;98941.41;5034128;28;20025;-50
2021/07/20 01:51:07;;;;;;;12.55;9.20;;;;;;;20.74;67.80;98941.81;5034107;28;20035;-52
2021/07/20 01:53:33;;;;;;;13.27;9.75;;;;;;;20.88;68.08;98961.69;5033792;28;20049;-45
2021/07/20 01:56:07;;;;;;;14.48;9.65;;;;;;;20.95;67.53;98964.38;5033935;28;20065;-53
2021/07/20 01:58:37;;;;;;;12.32;9.45;;;;;;;20.90;67.87;98958.75;5033643;28;20026;-50
2021/07/20 02:01:03;;;;;;;12.13;9.27;;;;;;;20.93;67.47;98961.03;5033616;28;20544;-50
2021/07/20 02:04:25;;;;;;;12.77;9.43;;;;;;;20.96;67.50;98960.63;5033968;28;20029;-49
2021/07/20 02:09:06;;;;;;;13.55;9.13;;;;;;;21.17;66.59;98969.56;5033645;28;20124;-52
2021/07/20 02:11:35;;;;;;;13.68;8.70;;;;;;;21.08;66.83;98952.63;5033376;28;20025;-49
2021/07/20 02:14:05;;;;;;;11.50;8.85;;;;;;;21.22;65.97;98961.63;5033520;28;20114;-51
2021/07/20 02:16:45;;;;;;;12.57;9.15;;;;;;;21.29;66.09;98956.97;5033546;28;20033;-53
2021/07/20 02:19:20;;;;;;;12.25;9.27;;;;;;;21.43;65.98;98971.34;5032761;28;20029;-50
2021/07/20 02:21:50;;;;;;;11.82;9.43;;;;;;;21.52;65.43;98977.41;5034046;28;20521;-47
2021/07/20 02:24:17;;;;;;;13.75;9.15;;;;;;;21.63;64.98;98973.16;5033502;28;20500;-46
2021/07/20 02:26:45;;;;;;;12.43;9.25;;;;;;;21.63;64.44;98937.75;5033234;28;20037;-51
2021/07/20 02:29:11;;;;;;;12.77;8.73;;;;;;;21.90;63.83;98962.94;5032877;28;20060;-49
2021/07/20 02:31:38;;;;;;;14.63;8.93;;;;;;;22.08;62.99;98972.28;5032284;28;20045;-50
2021/07/20 02:34:04;;;;;;;17.02;9.13;;;;;;;22.27;62.13;98956.00;5032914;28;20489;-50
2021/07/20 02:36:31;;;;;;;16.15;9.45;;;;;;;22.45;61.84;98958.78;5032958;28;20035;-50
2021/07/20 02:38:57;;;;;;;11.15;8.63;;;;;;;22.54;60.85;98944.91;5032903;28;20033;-47
2021/07/20 02:41:25;;;;;;;12.70;9.48;;;;;;;22.73;60.16;98941.13;5033082;28;20033;-51
2021/07/20 02:43:52;;;;;;;14.57;9.35;;;;;;;23.04;59.16;98960.34;5032691;28;20041;-51
2021/07/20 02:46:18;;;;;;;12.30;9.60;;;;;;;23.21;58.51;98968.75;5032879;28;20048;-50
2021/07/20 02:48:45;;;;;;;15.45;9.15;;;;;;;23.34;58.06;98965.06;5032901;28;20458;-48
2021/07/20 02:51:11;;;;;;;10.27;8.65;;;;;;;23.42;57.67;98959.28;5032993;28;20044;-54
2021/07/20 02:53:39;;;;;;;11.52;8.82;;;;;;;23.50;57.22;98958.13;5032747;28;20091;-50
2021/07/20 02:56:07;;;;;;;13.25;9.63;;;;;;;23.56;57.17;98962.66;5032630;28;20025;-54
2021/07/20 02:58:36;;;;;;;15.05;9.55;;;;;;;23.65;56.66;98961.31;5032744;28;20057;-51
2021/07/20 03:01:04;;;;;;;12.93;9.13;;;;;;;23.71;56.34;98961.44;5032589;28;20032;-52
2021/07/20 03:03:29;;;;;;;12.50;9.32;;;;;;;23.76;56.04;98950.63;5032285;28;20082;-49
2021/07/20 03:05:56;;;;;;;12.32;9.88;;;;;;;23.86;55.77;98959.09;5032126;28;20033;-52
2021/07/20 03:08:28;;;;;;;10.45;8.93;;;;;;;23.86;55.73;98942.69;5032227;28;20056;-48
2021/07/20 03:10:58;;;;;;;15.60;9.45;;;;;;;23.99;55.47;98962.72;5032268;28;20112;-51
2021/07/20 03:13:26;;;;;;;12.93;9.93;;;;;;;23.90;55.36;98964.94;5032355;28;20026;-53
2021/07/20 03:15:52;;;;;;;12.98;9.40;;;;;;;23.84;55.56;98963.97;5032073;28;20030;-48
2021/07/20 03:18:19;;;;;;;15.18;9.43;;;;;;;23.80;55.99;98968.22;5032303;28;20037;-49
2021/07/20 03:20:45;;;;;;;14.93;9.75;;;;;;;23.72;55.88;98963.91;5032415;28;20101;-50
2021/07/20 03:23:13;;;;;;;13.23;9.18;;;;;;;23.72;55.36;98974.03;5032345;28;20036;-51
2021/07/20 03:25:42;;;;;;;14.65;9.43;;;;;;;23.76;55.53;98969.78;5032222;28;20033;-52
2021/07/20 03:28:09;;;;;;;12.50;9.10;;;;;;;23.89;54.87;98964.13;5031851;28;20480;-50
2021/07/20 03:30:35;;;;;;;12.43;8.93;;;;;;;24.27;53.73;98964.84;5031265;28;20091;-49
2021/07/20 03:33:05;;;;;;;12.23;9.68;;;;;;;24.86;52.60;98971.44;5031903;28;20052;-52
2021/07/20 03:35:31;;;;;;;13.68;8.88;;;;;;;25.37;50.49;98964.31;5031842;28;20037;-52
2021/07/20 03:37:57;;;;;;;15.15;9.88;;;;;;;26.04;48.60;98963.94;5031820;28;20468;-47
2021/07/20 03:40:25;;;;;;;12.75;8.52;;;;;;;26.75;47.14;98963.47;5032068;28;20037;-51
2021/07/20 03:42:51;;;;;;;13.73;9.00;;;;;;;27.34;45.02;98973.09;5031483;28;20030;-52
2021/07/20 03:45:17;;;;;;;13.13;9.27;;;;;;;27.92;43.44;98969.91;5031709;28;20052;-52
2021/07/20 03:47:43;;;;;;;13.68;8.40;;;;;;;28.27;42.40;98976.03;5031993;28;20056;-48
2021/07/20 03:50:10;;;;;;;11.25;8.95;;;;;;;28.59;41.77;98979.88;5031473;28;20139;-51
2021/07/20 03:52:39;;;;;;;11.30;8.68;;;;;;;29.08;40.88;98979.66;5031817;28;20033;-53
2021/07/20 03:55:06;;;;;;;11.02;8.55;;;;;;;29.47;39.37;98974.91;5031743;28;20033;-49
2021/07/20 03:57:32;;;;;;;14.27;8.52;;;;;;;30.06;37.85;98981.97;5031485;28;20040;-52
2021/07/20 04:00:04;;;;;;;11.32;8.88;;;;;;;30.77;37.21;98982.25;5031451;28;20400;-51
2021/07/20 04:02:35;;;;;;;11.05;8.98;;;;;;;31.34;36.01;98968.28;5031432;28;20029;-52
2021/07/20 04:05:02;;;;;;;9.93;8.07;;;;;;;31.89;33.83;98972.19;5031050;28;20036;-49
2021/07/20 04:07:28;;;;;;;11.23;8.48;;;;;;;32.56;32.25;98962.56;5031198;28;20021;-54
2021/07/20 04:09:54;;;;;;;10.40;8.10;;;;;;;33.09;31.77;98981.16;5031126;28;20099;-51
2021/07/20 04:12:21;;;;;;;10.65;8.02;;;;;;;33.34;31.17;98980.03;5031089;28;20473;-54
2021/07/20 04:14:49;;;;;;;10.00;8.27;;;;;;;33.77;30.31;98973.66;5031521;28;20077;-50
2021/07/20 04:17:15;;;;;;;8.73;7.75;;;;;;;34.39;29.37;98976.66;5031105;28;20036;-51
2021/07/20 04:19:44;;;;;;;10.65;7.97;;;;;;;34.89;28.22;98978.81;5031242;28;20159;-49
2021/07/20 04:22:12;;;;;;;9.82;8.02;;;;;;;35.50;27.27;98974.00;5031219;28;20055;-46
2021/07/20 04:24:38;;;;;;;10.85;8.50;;;;;;;36.09;26.29;98983.59;5030991;28;20029;-51
2021/07/20 04:27:05;;;;;;;15.90;8.27;;;;;;;36.77;25.26;98983.56;5031405;28;20022;-47
2021/07/20 04:29:31;;;;;;;10.52;8.00;;;;;;;37.26;24.29;98974.44;5030926;28;20440;-49
2021/07/20 04:32:03;;;;;;;10.27;8.35;;;;;;;37.75;24.28;98982.78;5030875;28;20037;-52
2021/07/20 04:34:29;;;;;;;11.50;8.18;;;;;;;38.24;23.03;98983.78;5029856;28;20039;-50
2021/07/20 04:36:54;;;;;;;10.07;8.07;;;;;;;38.85;21.83;98974.47;5031244;28;20129;-52
2021/07/20 04:39:20;;;;;;;9.35;7.70;;;;;;;39.33;22.26;98984.47;5030706;28;20126;-55
2021/07/20 04:41:46;;;;;;;11.52;7.85;;;;;;;39.79;21.19;98989.47;5030911;28;20032;-51
2021/07/20 04:44:13;;;;;;;11.25;8.02;;;;;;;40.10;21.04;98993.88;5030876;28;20388;-49
2021/07/20 04:46:39;;;;;;;8.95;7.93;;;;;;;40.14;20.63;98982.75;5030759;28;20037;-51
2021/07/20 04:49:05;;;;;;;10.05;8.13;;;;;;;40.65;20.09;98991.03;5030400;28;20029;-54
2021/07/20 04:51:32;;;;;;;8.38;7.40;;;;;;;41.20;19.47;99004.94;5030558;28;20120;-51
2021/07/20 04:54:04;;;;;;;8.98;7.88;;;;;;;41.65;18.95;98997.59;5029563;28;20060;-52
2021/07/20 04:56:31;;;;;;;10.23;7.68;;;;;;;42.23;18.11;99004.13;5030543;28;20025;-54
2021/07/20 04:58:56;;;;;;;8.05;7.25;;;;;;;42.48;17.78;98996.38;5030210;28;20424;-50
2021/07/20 05:01:23;;;;;;;9.68;7.70;;;;;;;42.45;17.55;98999.94;5030196;28;20030;-48
2021/07/20 05:03:49;;;;;;;8.57;7.57;;;;;;;42.52;17.30;98993.69;5030945;28;20560;-54
2021/07/20 05:06:16;;;;;;;9.32;7.93;;;;;;;43.13;16.72;98994.44;5030820;28;20022;-52
2021/07/20 05:08:42;;;;;;;10.07;7.03;;;;;;;43.55;16.38;98999.50;5030244;28;20029;-52
2021/07/20 05:11:08;;;;;;;9.73;7.57;;;;;;;43.52;16.37;99008.69;5030611;28;20025;-52
2021/07/20 05:13:34;;;;;;;8.20;7.35;;;;;;;43.62;16.08;99004.50;5030555;28;20426;-52
2021/07/20 05:16:02;;;;;;;7.60;6.80;;;;;;;43.93;16.20;99008.41;5029736;28;20025;-53
2021/07/20 05:18:28;;;;;;;9.10;7.03;;;;;;;43.97;15.91;98985.94;5030234;28;20060;-54
2021/07/20 05:20:57;;;;;;;7.60;6.90;;;;;;;44.52;15.38;99007.63;5030405;28;20032;-52
2021/07/20 05:23:23;;;;;;;9.02;7.28;;;;;;;45.20;14.95;98999.53;5030539;28;20033;-52
2021/07/20 05:25:53;;;;;;;8.65;7.05;;;;;;;45.81;14.87;99021.47;5030608;28;20041;-52
2021/07/20 05:28:20;;;;;;;10.75;7.97;;;;;;;46.14;13.90;99011.41;5030705;28;20025;-51
2021/07/20 05:30:50;;;;;;;8.25;7.55;;;;;;;46.49;14.08;99026.34;5030238;28;20053;-48
2021/07/20 05:33:18;;;;;;;9.00;7.18;;;;;;;46.86;13.43;99022.72;5030097;28;20036;-53
2021/07/20 05:35:44;;;;;;;12.10;7.68;;;;;;;47.19;12.90;99018.16;5029935;28;20483;-53
2021/07/20 05:38:10;;;;;;;8.50;7.60;;;;;;;47.59;12.45;99012.78;5030207;28;20064;-51
2021/07/20 05:40:35;;;;;;;9.05;7.57;;;;;;;47.90;11.83;99018.22;5030303;28;20033;-54
2021/07/20 05:43:01;;;;;;;10.27;7.15;;;;;;;48.41;11.96;99022.13;5030031;28;20034;-49
2021/07/20 05:45:26;;;;;;;9.05;7.45;;;;;;;48.73;11.68;99029.88;5030118;28;20144;-51
2021/07/20 05:47:53;;;;;;;7.45;6.85;;;;;;;49.21;11.28;99027.91;5030406;28;20034;-50
2021/07/20 05:50:20;;;;;;;9.13;7.28;;;;;;;49.38;11.55;99037.63;5030405;28;20026;-53
2021/07/20 05:52:47;;;;;;;8.65;7.50;;;;;;;49.65;10.97;99040.88;5031002;28;20039;-50
2021/07/20 05:55:14;;;;;;;8.32;7.45;;;;;;;49.29;11.12;99035.22;5033359;28;20041;-51
2021/07/20 05:57:45;;;;;;;8.23;6.95;;;;;;;49.26;11.64;99019.81;5033452;28;20037;-50
2021/07/20 06:00:12;;;;;;;9.13;6.90;;;;;;;49.44;11.04;99029.50;5033477;28;20041;-53
2021/07/20 06:02:39;;;;;;;10.40;7.03;;;;;;;49.24;11.09;99035.63;5033649;28;20029;-55
2021/07/20 06:05:08;;;;;;;8.40;7.70;;;;;;;49.44;11.57;99040.88;5033303;28;20440;-53
2021/07/20 06:07:35;;;;;;;6.97;6.38;;;;;;;49.56;11.44;99035.59;5033606;28;20037;-51
2021/07/20 06:10:02;;;;;;;9.10;8.30;;;;;;;49.32;10.82;99019.38;5032977;28;20064;-48
2021/07/20 06:12:30;;;;;;;9.60;7.60;;;;;;;49.50;10.97;99034.41;5033457;28;20045;-51
2021/07/20 06:14:56;;;;;;;10.10;7.47;;;;;;;49.83;10.70;99020.91;5033314;28;20071;-53
2021/07/20 06:17:23;;;;;;;9.48;7.68;;;;;;;50.21;10.43;99025.25;5032231;28;20104;-52
2021/07/20 06:19:50;;;;;;;7.78;7.15;;;;;;;50.05;10.10;99029.38;5031481;28;20029;-52
2021/07/20 06:22:21;;;;;;;8.43;7.50;;;;;;;49.15;11.24;99030.34;5031526;28;20478;-51
2021/07/20 06:24:47;;;;;;;9.00;7.68;;;;;;;48.83;10.99;99029.09;5031722;28;20030;-52
2021/07/20 06:27:15;;;;;;;8.30;7.47;;;;;;;48.41;11.23;99028.59;5031334;28;20420;-48
2021/07/20 06:29:44;;;;;;;8.20;7.45;;;;;;;47.52;12.31;99030.56;5032203;28;20059;-50
2021/07/20 06:32:11;;;;;;;8.95;8.20;;;;;;;46.12;13.08;99030.78;5033033;28;20401;-48
2021/07/20 06:34:38;;;;;;;9.18;7.85;;;;;;;45.02;13.71;99013.38;5032762;28;20040;-48
2021/07/20 06:37:05;;;;;;;9.30;8.40;;;;;;;45.59;13.12;99032.44;5032762;28;20032;-48
2021/07/20 06:39:31;;;;;;;10.18;7.90;;;;;;;47.03;11.90;99029.75;5032723;28;20037;-51
2021/07/20 06:42:01;;;;;;;8.20;7.47;;;;;;;48.18;10.52;99026.09;5032605;28;20123;-50
2021/07/20 06:44:28;;;;;;;8.32;7.53;;;;;;;49.13;10.22;99032.75;5032506;28;20037;-53
2021/07/20 06:46:56;;;;;;;9.85;7.75;;;;;;;48.79;10.56;99033.97;5032810;28;20029;-53
2021/07/20 06:49:22;;;;;;;9.77;7.80;;;;;;;49.16;9.87;99022.66;5032831;28;20091;-54
2021/07/20 06:51:48;;;;;;;8.18;7.28;;;;;;;50.55;8.40;99034.03;5032319;28;20047;-53
2021/07/20 06:54:15;;;;;;;7.00;6.50;;;;;;;51.25;7.78;99046.53;5032537;28;20084;-50
2021/07/20 06:56:50;;;;;;;6.30;5.80;;;;;;;52.23;7.22;99039.81;5032359;28;20034;-55
2021/07/20 06:59:18;;;;;;;6.70;5.93;;;;;;;52.17;6.49;99035.00;5032312;28;20342;-49
2021/07/20 07:01:44;;;;;;;6.05;5.38;;;;;;;52.21;6.65;99030.03;5032823;28;20366;-52
2021/07/20 07:04:20;;;;;;;6.40;5.90;;;;;;;52.66;6.52;99038.41;5037352;28;20083;-52
2021/07/20 07:06:49;;;;;;;6.15;5.63;;;;;;;52.35;6.15;99035.59;5040068;28;20036;-55
2021/07/20 07:09:15;;;;;;;6.40;5.80;;;;;;;51.26;6.68;99039.59;5040822;28;20026;-52
2021/07/20 07:11:44;;;;;;;5.93;5.40;;;;;;;50.31;7.39;99040.69;5040170;28;20060;-55
2021/07/20 07:14:11;;;;;;;7.13;5.95;;;;;;;50.31;7.49;99032.94;5039677;28;20024;-49
2021/07/20 07:16:40;;;;;;;6.38;5.70;;;;;;;51.22;7.13;99024.59;5041342;28;20116;-54
2021/07/20 07:19:07;;;;;;;6.82;5.97;;;;;;;51.51;6.94;99018.59;5040628;28;20457;-50
2021/07/20 07:21:33;;;;;;;6.57;5.97;;;;;;;51.97;5.92;99019.34;5039892;28;20024;-52
2021/07/20 07:24:00;;;;;;;6.00;5.50;;;;;;;52.55;5.77;99026.31;5041489;28;20025;-54
2021/07/20 07:26:26;;;;;;;5.80;5.38;;;;;;;53.03;5.22;99020.69;5041206;28;20029;-54
2021/07/20 07:28:53;;;;;;;6.07;5.63;;;;;;;53.49;5.05;99024.78;5040817;28;20045;-53
2021/07/20 07:31:19;;;;;;;6.80;5.57;;;;;;;53.51;5.32;99022.28;5039214;28;20034;-52
2021/07/20 07:33:46;;;;;;;5.93;5.53;;;;;;;53.15;5.25;99027.84;5031599;28;20033;-53
2021/07/20 07:36:14;;;;;;;6.53;5.93;;;;;;;52.66;5.87;99021.25;5031552;28;20112;-53
2021/07/20 07:38:44;;;;;;;6.78;6.28;;;;;;;53.30;5.78;99028.38;5031431;28;20025;-54
2021/07/20 07:41:11;;;;;;;7.65;7.05;;;;;;;53.56;5.33;99020.19;5037400;28;20029;-53
2021/07/20 07:43:39;;;;;;;7.55;6.85;;;;;;;52.48;6.35;99020.72;5049127;28;20037;-51
2021/07/20 07:46:06;;;;;;;6.57;5.97;;;;;;;52.03;6.22;99018.88;5051457;28;20124;-54
2021/07/20 07:48:37;;;;;;;6.63;6.00;;;;;;;52.45;5.63;99021.59;5051531;28;20052;-53
2021/07/20 07:51:04;;;;;;;7.40;6.70;;;;;;;52.99;5.87;99017.06;5045032;28;20477;-54
2021/07/20 07:53:31;;;;;;;6.82;6.10;;;;;;;53.15;5.42;99017.22;5056500;28;20028;-58
2021/07/20 07:55:57;;;;;;;8.80;6.10;;;;;;;53.18;5.44;99016.34;5054091;28;20029;-50
2021/07/20 07:58:28;;;;;;;7.18;6.57;;;;;;;52.36;6.28;99019.25;5052691;28;20528;-52
2021/07/20 08:00:57;;;;;;;7.18;6.57;;;;;;;50.25;7.50;99017.53;5051344;28;20131;-51
2021/07/20 08:03:28;;;;;;;6.95;6.35;;;;;;;49.56;7.91;99020.56;5039224;28;20033;-56
2021/07/20 08:05:54;;;;;;;6.50;5.97;;;;;;;49.28;8.29;99011.66;5031583;28;20025;-50
2021/07/20 08:08:20;;;;;;;5.78;5.18;;;;;;;49.30;7.83;99018.97;5031742;28;20037;-50
2021/07/20 08:10:47;;;;;;;7.22;6.00;;;;;;;49.36;7.82;99017.34;5029875;28;20041;-55
2021/07/20 08:13:14;;;;;;;6.40;5.40;;;;;;;49.37;8.01;99016.13;5030132;28;20116;-53
2021/07/20 08:15:47;;;;;;;6.03;5.47;;;;;;;49.52;7.64;99031.97;5030686;28;20056;-53
2021/07/20 08:18:12;;;;;;;5.50;4.95;;;;;;;49.28;7.94;99017.34;5031093;28;20087;-54
2021/07/20 08:20:39;;;;;;;6.13;5.53;;;;;;;49.09;7.78;99009.22;5030756;28;20029;-49
2021/07/20 08:23:04;;;;;;;8.27;5.22;;;;;;;48.49;7.87;98998.19;5031033;28;20040;-49
2021/07/20 08:25:58;;;;;;;5.78;4.75;;;;;;;48.16;8.43;99019.16;5031048;28;20034;-50
2021/07/20 08:28:47;;;;;;;5.53;5.10;;;;;;;45.29;10.44;99025.50;5030554;28;20041;-53
2021/07/20 08:31:14;;;;;;;7.07;5.28;;;;;;;41.87;12.81;99032.78;5031151;28;20041;-52
2021/07/20 08:33:43;;;;;;;8.80;4.85;;;;;;;39.76;14.53;99018.16;5031140;28;20062;-52
2021/07/20 08:36:13;;;;;;;4.65;4.15;;;;;;;38.07;15.73;99012.56;5031099;28;20545;-53
2021/07/20 08:38:40;;;;;;;5.50;4.28;;;;;;;36.90;16.36;99017.28;5030982;28;20029;-50
2021/07/20 08:41:31;;;;;;;5.40;3.75;;;;;;;36.12;16.87;99026.72;5030319;28;20440;-52
2021/07/20 08:44:10;;;;;;;4.25;3.90;;;;;;;35.06;18.05;99029.16;5030888;28;20029;-49
2021/07/20 08:47:03;;;;;;;4.78;3.92;;;;;;;34.43;18.75;99024.91;5030998;28;20073;-54
2021/07/20 08:49:40;;;;;;;4.25;3.85;;;;;;;33.96;19.61;99019.22;5031058;28;20496;-48
2021/07/20 08:52:14;;;;;;;4.03;3.67;;;;;;;33.47;20.65;99027.63;5030884;28;20032;-48
2021/07/20 08:55:04;;;;;;;5.10;4.43;;;;;;;33.45;21.53;99035.41;5030811;28;20041;-49
2021/07/20 08:57:43;;;;;;;7.95;4.32;;;;;;;33.25;21.61;99031.72;5029850;28;20064;-50
2021/07/20 09:00:14;;;;;;;4.90;4.40;;;;;;;32.93;22.62;99030.41;5029816;28;20400;-54
2021/07/20 09:02:48;;;;;;;7.13;4.35;;;;;;;32.84;22.15;99032.13;5029566;28;20942;-54
2021/07/20 09:05:33;;;;;;;6.90;5.05;;;;;;;32.64;23.38;99011.81;5030311;28;20480;-48
2021/07/20 09:08:00;;;;;;;4.80;4.30;;;;;;;32.33;24.27;99040.59;5030244;28;20032;-52
2021/07/20 09:10:31;;;;;;;5.85;5.05;;;;;;;32.09;24.04;99037.69;5029489;28;20080;-56
2021/07/20 09:12:57;;;;;;;5.47;4.38;;;;;;;31.63;25.27;99022.94;5029293;28;20037;-51
2021/07/20 09:15:25;;;;;;;7.60;4.70;;;;;;;31.29;25.46;99018.09;5029506;28;20021;-48
2021/07/20 09:18:08;;;;;;;5.13;4.43;;;;;;;31.32;24.58;99027.78;5028243;28;20520;-52
2021/07/20 09:20:36;;;;;;;7.85;4.18;;;;;;;31.09;25.07;99002.38;5029825;28;20076;-51
2021/07/20 09:23:15;;;;;;;6.47;4.35;;;;;;;31.39;24.54;99027.47;5029780;28;20052;-55
2021/07/20 09:25:59;;;;;;;5.07;4.00;;;;;;;31.40;24.14;99023.59;5029616;28;20030;-50
2021/07/20 09:28:39;;;;;;;8.05;4.10;;;;;;;31.28;24.26;99027.50;5030993;28;20049;-56
2021/07/20 09:31:12;;;;;;;7.25;4.00;;;;;;;31.20;24.61;99025.31;5033072;28;20038;-52
2021/07/20 09:34:06;;;;;;;4.60;3.53;;;;;;;31.32;23.92;99025.00;5033786;28;20026;-57
2021/07/20 09:36:52;;;;;;;4.63;3.58;;;;;;;31.34;23.71;99022.78;5033104;28;20098;-53
2021/07/20 09:39:24;;;;;;;5.90;4.03;;;;;;;31.26;23.62;99015.91;5031579;28;20026;-46
2021/07/20 09:41:54;;;;;;;4.53;4.00;;;;;;;31.22;24.02;99023.09;5033520;28;20037;-55
2021/07/20 09:44:30;;;;;;;5.97;3.80;;;;;;;31.16;23.85;99018.66;5033555;28;20029;-48
2021/07/20 09:47:10;;;;;;;5.32;3.85;;;;;;;31.06;23.93;99019.53;5033192;28;20033;-49
2021/07/20 09:49:38;;;;;;;4.43;3.60;;;;;;;30.79;24.02;99007.69;5033572;28;20029;-54
2021/07/20 09:52:25;;;;;;;4.30;3.67;;;;;;;30.93;23.64;99016.22;5033434;28;20037;-53
2021/07/20 09:55:08;;;;;;;4.05;3.58;;;;;;;30.81;23.96;99017.63;5033250;28;20120;-52
2021/07/20 09:58:12;;;;;;;8.30;3.97;;;;;;;31.00;23.37;99015.94;5033099;28;20111;-53
2021/07/20 10:01:01;;;;;;;4.30;3.28;;;;;;;31.04;23.45;99011.50;5031919;28;20034;-51
2021/07/20 10:03:42;;;;;;;4.80;3.17;;;;;;;30.93;23.73;99024.50;5032578;28;20046;-55
2021/07/20 10:06:29;;;;;;;4.93;3.30;;;;;;;30.86;23.30;99023.13;5033238;28;20034;-51
2021/07/20 10:08:58;;;;;;;3.83;3.10;;;;;;;30.73;23.38;99017.09;5033076;28;20061;-50
2021/07/20 10:11:37;;;;;;;3.25;2.95;;;;;;;30.69;23.16;99027.03;5032359;28;20473;-52
2021/07/20 10:14:06;;;;;;;3.92;3.00;;;;;;;30.59;23.50;99021.47;5033153;28;20124;-50
2021/07/20 10:16:45;;;;;;;4.65;2.70;;;;;;;30.67;22.95;99018.19;5032941;28;20033;-53
2021/07/20 10:19:34;;;;;;;5.80;3.30;;;;;;;30.70;23.10;99020.41;5032427;28;20370;-52
2021/07/20 10:22:03;;;;;;;5.03;2.80;;;;;;;30.59;22.70;99027.00;5032782;28;20373;-56
2021/07/20 10:24:32;;;;;;;4.70;2.92;;;;;;;30.59;22.73;99027.84;5032933;28;20029;-52
2021/07/20 10:27:14;;;;;;;3.45;2.97;;;;;;;30.65;22.52;99024.00;5032300;28;20508;-52
2021/07/20 10:30:06;;;;;;;3.10;2.80;;;;;;;30.54;22.58;99024.25;5032382;28;20148;-53
2021/07/20 10:32:37;;;;;;;4.53;2.97;;;;;;;30.32;22.91;99017.91;5032962;28;20144;-51
2021/07/20 10:35:07;;;;;;;3.40;2.63;;;;;;;30.10;23.26;99028.34;5032684;28;20036;-52
2021/07/20 10:37:39;;;;;;;4.00;2.90;;;;;;;30.00;22.95;99018.09;5033241;28;20454;-57
2021/07/20 10:40:18;;;;;;;2.90;2.40;;;;;;;30.08;22.23;99026.69;5049999;28;20086;-54
2021/07/20 10:42:57;;;;;;;3.55;2.28;;;;;;;30.10;22.22;99023.66;5052204;28;20542;-55
2021/07/20 10:45:24;;;;;;;3.72;2.83;;;;;;;29.92;22.70;99022.19;5052336;28;20040;-53
2021/07/20 10:47:57;;;;;;;2.80;2.45;;;;;;;29.71;23.03;98989.03;5051883;28;20389;-51
2021/07/20 10:50:27;;;;;;;4.15;2.70;;;;;;;29.68;22.93;99008.09;5052275;28;20056;-53
2021/07/20 10:53:02;;;;;;;4.18;2.42;;;;;;;29.83;23.10;99013.63;5052017;28;20567;-55
2021/07/20 10:55:40;;;;;;;2.65;2.45;;;;;;;29.85;23.38;99011.41;5052106;28;20044;-51
2021/07/20 10:58:27;;;;;;;3.50;2.42;;;;;;;29.99;23.04;99019.19;5051531;28;20035;-50
2021/07/20 11:01:02;;;;;;;3.42;2.50;;;;;;;29.77;23.13;99023.81;5045097;28;20049;-53
2021/07/20 11:03:47;;;;;;;2.67;2.40;;;;;;;29.77;23.39;99014.72;5051581;28;20464;-56
2021/07/20 11:06:16;;;;;;;6.60;2.95;;;;;;;29.45;23.30;99008.25;5052333;28;20040;-54
2021/07/20 11:08:44;;;;;;;2.40;2.20;;;;;;;29.34;23.72;98999.06;5052102;28;20040;-54
2021/07/20 11:11:18;;;;;;;4.00;2.60;;;;;;;29.46;23.37;99000.81;5050601;28;20124;-51
2021/07/20 11:13:46;;;;;;;3.65;2.38;;;;;;;29.52;23.06;99005.25;5052325;28;20033;-52
2021/07/20 11:16:12;;;;;;;2.75;2.42;;;;;;;29.56;23.07;98995.34;5051659;28;20481;-50
2021/07/20 11:18:41;;;;;;;3.38;2.60;;;;;;;29.71;23.01;99007.53;5050144;28;20106;-57
2021/07/20 11:21:10;;;;;;;5.18;2.70;;;;;;;29.77;23.06;99006.44;5048492;28;20036;-52
2021/07/20 11:23:41;;;;;;;2.65;2.42;;;;;;;29.82;22.78;99003.69;5046573;28;20083;-49
2021/07/20 11:26:08;;;;;;;4.68;2.53;;;;;;;29.69;23.16;98994.00;5039921;28;20078;-51
2021/07/20 11:28:34;;;;;;;4.97;2.75;;;;;;;29.68;23.48;98994.28;5032112;28;20049;-49
2021/07/20 11:31:08;;;;;;;5.00;2.78;;;;;;;29.75;22.95;99003.94;5032019;28;20038;-52
2021/07/20 11:33:42;;;;;;;2.70;2.50;;;;;;;29.73;22.90;98999.81;5051965;28;20078;-52
2021/07/20 11:36:10;;;;;;;3.22;2.47;;;;;;;29.36;23.21;98976.75;5050741;28;20086;-49
2021/07/20 11:38:38;;;;;;;3.20;2.55;;;;;;;29.27;23.36;98998.50;5051333;28;20048;-51
2021/07/20 11:41:12;;;;;;;3.25;2.03;;;;;;;29.18;23.51;98992.66;5051542;28;20204;-52
2021/07/20 11:44:12;;;;;;;2.75;2.30;;;;;;;29.27;23.86;98981.97;5051089;28;20063;-52
2021/07/20 11:47:09;;;;;;;2.72;2.30;;;;;;;29.42;23.76;98996.94;5049090;28;20036;-50